Time;durP1;ratioP1;P1;durP2;ratioP2;P2;SDS_P1;SDS_P2;PMS_P1;PMS_P2;Temp;Humidity;BMP_temperature;BMP_pressure;BME280_temperature;BME280_humidity;BME280_pressure;Samples;Min_cycle;Max_cycle;Signal;HPM_P1;HPM_P2
2023/12/13 00:01:29;;;;;;;;;;;;;;;6.38;100.00;97889.31;68029;1275;1016256;-75
2023/12/13 00:04:31;;;;;;;;;;;;;;;6.23;100.00;97886.36;67976;1275;1016486;-74
2023/12/13 00:07:34;;;;;;;;;;;;;;;6.22;100.00;97888.02;68055;1275;1016195;-74
2023/12/13 00:10:36;;;;;;;;;;;;;;;6.15;100.00;97886.49;68058;1275;1016531;-74
2023/12/13 00:13:39;;;;;;;;;;;;;;;6.28;100.00;97882.66;68010;1275;1016432;-75
2023/12/13 00:16:43;;;;;;;;;;;;;;;6.30;100.00;97878.04;67984;1275;1018543;-74
2023/12/13 00:19:47;;;;;;;;;;;;;;;6.25;100.00;97879.31;68018;1275;1016437;-74
2023/12/13 00:22:50;;;;;;;;;;;;;;;6.04;100.00;97877.76;68029;1275;1017187;-74
2023/12/13 00:25:52;;;;;;;;;;;;;;;5.90;100.00;97873.83;68096;1275;1016535;-74
2023/12/13 00:28:55;;;;;;;;;;;;;;;5.86;100.00;97872.48;68046;1275;1016493;-73
2023/12/13 00:31:57;;;;;;;;;;;;;;;5.75;100.00;97874.30;68015;1275;1016492;-74
2023/12/13 00:35:00;;;;;;;;;;;;;;;5.57;100.00;97872.20;68061;1275;1016296;-73
2023/12/13 00:38:03;;;;;;;;;;;;;;;5.66;100.00;97873.46;68040;1275;1015969;-74
2023/12/13 00:41:06;;;;;;;;;;;;;;;5.71;100.00;97868.45;68052;1275;1017034;-74
2023/12/13 00:44:08;;;;;;;;;;;;;;;5.63;100.00;97864.25;68025;1275;1016301;-74
2023/12/13 00:47:11;;;;;;;;;;;;;;;5.59;100.00;97869.15;68065;1275;1016433;-74
2023/12/13 00:50:14;;;;;;;;;;;;;;;5.50;100.00;97871.20;68030;1275;1016414;-74
2023/12/13 00:53:16;;;;;;;;;;;;;;;5.38;100.00;97873.09;68049;1275;1016292;-74
2023/12/13 00:56:19;;;;;;;;;;;;;;;5.31;100.00;97870.36;68058;1275;1016417;-74
2023/12/13 00:59:21;;;;;;;;;;;;;;;5.26;100.00;97863.50;68046;1275;1016449;-73
2023/12/13 01:02:24;;;;;;;;;;;;;;;5.21;100.00;97859.61;68036;1275;1015897;-74
2023/12/13 01:05:26;;;;;;;;;;;;;;;5.23;100.00;97851.20;68045;1275;1016482;-74
2023/12/13 01:08:29;;;;;;;;;;;;;;;5.20;100.00;97849.64;68027;1275;1016437;-74
2023/12/13 01:11:32;;;;;;;;;;;;;;;5.34;100.00;97847.85;68014;1275;1015970;-74
2023/12/13 01:14:34;;;;;;;;;;;;;;;5.37;100.00;97839.68;67983;1275;1016424;-74
2023/12/13 01:17:37;;;;;;;;;;;;;;;5.30;100.00;97836.09;68062;1275;1016216;-74
2023/12/13 01:20:40;;;;;;;;;;;;;;;5.24;100.00;97829.67;68020;1275;1016268;-74
2023/12/13 01:23:43;;;;;;;;;;;;;;;5.28;100.00;97838.42;68061;1275;1016462;-74
2023/12/13 01:26:46;;;;;;;;;;;;;;;5.24;100.00;97830.55;67930;1275;1016223;-74
2023/12/13 01:29:48;;;;;;;;;;;;;;;5.16;100.00;97818.15;68071;1275;1018025;-74
2023/12/13 01:32:51;;;;;;;;;;;;;;;5.08;100.00;97820.98;68034;1275;1016462;-74
2023/12/13 01:35:53;;;;;;;;;;;;;;;4.93;100.00;97808.95;67996;1275;1016912;-74
2023/12/13 01:38:56;;;;;;;;;;;;;;;4.79;100.00;97792.60;68021;1275;1016284;-74
2023/12/13 01:41:59;;;;;;;;;;;;;;;4.74;100.00;97787.33;68022;1275;1015719;-75
2023/12/13 01:45:01;;;;;;;;;;;;;;;4.69;100.00;97783.38;68051;1275;1016313;-74
2023/12/13 01:48:04;;;;;;;;;;;;;;;4.65;100.00;97773.57;68013;1275;1016345;-74
2023/12/13 01:51:06;;;;;;;;;;;;;;;4.64;100.00;97771.91;68062;1275;1016456;-74
2023/12/13 01:54:09;;;;;;;;;;;;;;;4.65;100.00;97778.79;68059;1275;1016470;-74
2023/12/13 01:57:13;;;;;;;;;;;;;;;4.71;100.00;97772.23;68005;1275;1016325;-74
2023/12/13 02:00:16;;;;;;;;;;;;;;;4.75;100.00;97766.83;68020;1275;1018296;-74
2023/12/13 02:03:18;;;;;;;;;;;;;;;4.76;100.00;97767.98;68039;1275;1016056;-75
2023/12/13 02:06:21;;;;;;;;;;;;;;;4.89;100.00;97765.36;68003;1275;1018570;-73
2023/12/13 02:09:24;;;;;;;;;;;;;;;4.91;100.00;97763.19;68025;1275;1016349;-74
2023/12/13 02:12:26;;;;;;;;;;;;;;;5.06;100.00;97753.86;68047;1275;1016326;-74
2023/12/13 02:15:34;;;;;;;;;;;;;;;5.21;100.00;97746.10;68046;1275;1016421;-74
2023/12/13 02:18:38;;;;;;;;;;;;;;;5.15;100.00;97743.50;68003;1275;1018631;-75
2023/12/13 02:21:40;;;;;;;;;;;;;;;5.17;100.00;97741.84;68005;1275;1016246;-73
2023/12/13 02:24:43;;;;;;;;;;;;;;;5.28;100.00;97752.66;68000;1275;1016429;-74
2023/12/13 02:27:46;;;;;;;;;;;;;;;5.32;100.00;97764.20;68018;1275;1016656;-73
2023/12/13 02:30:57;;;;;;;;;;;;;;;5.39;100.00;97768.00;68015;1275;1016238;-75
2023/12/13 02:34:00;;;;;;;;;;;;;;;5.46;100.00;97758.58;68009;1275;1016299;-74
2023/12/13 02:37:03;;;;;;;;;;;;;;;5.47;100.00;97754.48;68028;1275;1016581;-74
2023/12/13 02:40:07;;;;;;;;;;;;;;;5.43;100.00;97757.85;67972;1275;1016259;-74
2023/12/13 02:43:09;;;;;;;;;;;;;;;5.43;100.00;97753.21;68033;1275;1015957;-73
2023/12/13 02:46:12;;;;;;;;;;;;;;;5.44;100.00;97750.00;67960;1275;1016483;-73
2023/12/13 02:49:14;;;;;;;;;;;;;;;5.46;100.00;97749.73;68053;1275;1016052;-74
2023/12/13 02:52:17;;;;;;;;;;;;;;;5.43;100.00;97740.35;68070;1275;1016559;-74
2023/12/13 02:55:19;;;;;;;;;;;;;;;5.37;100.00;97745.70;68024;1275;1016457;-75
2023/12/13 02:58:22;;;;;;;;;;;;;;;5.30;100.00;97747.30;68027;1275;1016541;-73
2023/12/13 03:01:25;;;;;;;;;;;;;;;5.24;100.00;97751.29;68051;1275;1016423;-74
2023/12/13 03:04:27;;;;;;;;;;;;;;;5.25;100.00;97750.74;68018;1275;1017640;-74
2023/12/13 03:07:30;;;;;;;;;;;;;;;5.28;100.00;97744.70;68001;1275;1016896;-75
2023/12/13 03:10:35;;;;;;;;;;;;;;;5.20;100.00;97739.41;67974;1275;1016317;-74
2023/12/13 03:13:37;;;;;;;;;;;;;;;5.10;100.00;97737.90;68020;1275;1016474;-75
2023/12/13 03:16:40;;;;;;;;;;;;;;;5.07;100.00;97736.33;68014;1275;1016592;-74
2023/12/13 03:19:43;;;;;;;;;;;;;;;5.10;100.00;97730.80;68021;1275;1018700;-74
2023/12/13 03:22:46;;;;;;;;;;;;;;;5.14;100.00;97731.06;68004;1275;1016470;-75
2023/12/13 03:25:48;;;;;;;;;;;;;;;5.14;100.00;97732.83;67971;1275;1016518;-72
2023/12/13 03:28:51;;;;;;;;;;;;;;;5.08;100.00;97730.20;68029;1275;1016799;-74
2023/12/13 03:31:54;;;;;;;;;;;;;;;5.08;100.00;97728.16;68048;1275;1015679;-74
2023/12/13 03:34:56;;;;;;;;;;;;;;;5.02;100.00;97730.16;67976;1275;1016907;-74
2023/12/13 03:37:59;;;;;;;;;;;;;;;5.07;100.00;97729.58;68003;1275;1019405;-74
2023/12/13 03:41:01;;;;;;;;;;;;;;;5.02;100.00;97725.52;68045;1275;1016440;-74
2023/12/13 03:44:04;;;;;;;;;;;;;;;5.04;100.00;97720.02;67998;1275;1016407;-74
2023/12/13 03:47:06;;;;;;;;;;;;;;;4.99;100.00;97709.38;67959;1275;1016044;-75
2023/12/13 03:50:10;;;;;;;;;;;;;;;5.01;100.00;97719.84;68027;1275;1016401;-75
2023/12/13 03:53:33;;;;;;;;;;;;;;;5.13;100.00;97720.23;67954;1275;1016546;-75
2023/12/13 03:56:36;;;;;;;;;;;;;;;5.25;100.00;97724.04;68060;1275;1016177;-75
2023/12/13 03:59:39;;;;;;;;;;;;;;;5.33;100.00;97730.02;67993;1275;1016410;-75
2023/12/13 04:02:41;;;;;;;;;;;;;;;5.30;100.00;97724.80;68017;1275;1016336;-75
2023/12/13 04:05:44;;;;;;;;;;;;;;;5.30;100.00;97721.84;68053;1275;1017809;-74
2023/12/13 04:08:47;;;;;;;;;;;;;;;5.36;100.00;97724.13;67975;1275;1016426;-74
2023/12/13 04:11:50;;;;;;;;;;;;;;;5.39;100.00;97716.30;68059;1275;1016430;-75
2023/12/13 04:14:52;;;;;;;;;;;;;;;5.31;100.00;97704.98;68039;1275;1016404;-74
2023/12/13 04:17:55;;;;;;;;;;;;;;;5.25;100.00;97701.67;67990;1275;1016430;-74
2023/12/13 04:20:57;;;;;;;;;;;;;;;5.20;100.00;97693.80;68006;1275;1017228;-75
2023/12/13 04:24:02;;;;;;;;;;;;;;;5.24;100.00;97686.84;68054;1275;1016845;-74
2023/12/13 04:27:05;;;;;;;;;;;;;;;5.27;100.00;97685.10;67999;1275;1016386;-74
2023/12/13 04:30:11;;;;;;;;;;;;;;;5.22;100.00;97682.09;68051;1275;1016359;-74
2023/12/13 04:33:35;;;;;;;;;;;;;;;5.21;100.00;97678.16;68015;1275;1016411;-75
2023/12/13 04:36:37;;;;;;;;;;;;;;;5.38;100.00;97673.01;68016;1275;1016403;-75
2023/12/13 04:39:40;;;;;;;;;;;;;;;5.40;100.00;97667.70;68021;1275;1016584;-74
2023/12/13 04:42:42;;;;;;;;;;;;;;;5.28;100.00;97667.86;68000;1275;1017996;-74
2023/12/13 04:45:45;;;;;;;;;;;;;;;5.35;100.00;97672.67;67963;1275;1018879;-75
2023/12/13 04:48:48;;;;;;;;;;;;;;;5.39;100.00;97668.30;68018;1275;1016679;-74
2023/12/13 04:51:50;;;;;;;;;;;;;;;5.40;100.00;97662.85;68018;1275;1016770;-73
2023/12/13 04:54:53;;;;;;;;;;;;;;;5.35;100.00;97661.77;68015;1275;1015738;-74
2023/12/13 04:57:55;;;;;;;;;;;;;;;5.35;100.00;97660.90;68020;1275;1017118;-73
2023/12/13 05:00:58;;;;;;;;;;;;;;;5.30;100.00;97660.52;68040;1275;1018225;-74
2023/12/13 05:04:01;;;;;;;;;;;;;;;5.29;100.00;97656.23;68027;1275;1016391;-74
2023/12/13 05:07:03;;;;;;;;;;;;;;;5.26;100.00;97650.86;68014;1275;1016451;-75
2023/12/13 05:10:06;;;;;;;;;;;;;;;5.27;100.00;97648.70;68054;1275;1016380;-74
2023/12/13 05:13:08;;;;;;;;;;;;;;;5.37;100.00;97649.34;68059;1275;1017354;-74
2023/12/13 05:16:11;;;;;;;;;;;;;;;5.29;100.00;97645.13;67996;1275;1016163;-74
2023/12/13 05:19:13;;;;;;;;;;;;;;;5.31;100.00;97634.07;68032;1275;1016455;-74
2023/12/13 05:22:25;;;;;;;;;;;;;;;5.19;100.00;97626.27;67982;1275;1016425;-74
2023/12/13 05:25:28;;;;;;;;;;;;;;;5.21;100.00;97628.25;65354;1275;6476331;-75
2023/12/13 05:28:30;;;;;;;;;;;;;;;5.26;100.00;97623.27;68017;1275;1016045;-73
2023/12/13 05:31:33;;;;;;;;;;;;;;;5.21;100.00;97614.58;68038;1275;1018799;-74
2023/12/13 05:34:36;;;;;;;;;;;;;;;5.14;100.00;97615.31;67902;1275;1016106;-74
2023/12/13 05:37:38;;;;;;;;;;;;;;;5.11;100.00;97625.05;68038;1275;1016832;-74
2023/12/13 05:40:41;;;;;;;;;;;;;;;5.00;100.00;97620.44;68028;1275;1016489;-74
2023/12/13 05:43:43;;;;;;;;;;;;;;;4.99;100.00;97620.67;67899;1275;1016420;-74
2023/12/13 05:46:46;;;;;;;;;;;;;;;4.99;100.00;97624.66;68000;1275;1016440;-74
2023/12/13 05:49:48;;;;;;;;;;;;;;;5.00;100.00;97628.57;68025;1275;1016902;-74
2023/12/13 05:52:51;;;;;;;;;;;;;;;5.03;100.00;97616.96;67997;1275;1016458;-75
2023/12/13 05:55:54;;;;;;;;;;;;;;;5.08;100.00;97615.29;67990;1275;1016396;-75
2023/12/13 05:58:56;;;;;;;;;;;;;;;5.04;100.00;97612.06;68036;1275;1016527;-74
2023/12/13 06:01:59;;;;;;;;;;;;;;;5.01;100.00;97612.41;68037;1275;1016437;-74
2023/12/13 06:05:02;;;;;;;;;;;;;;;4.90;100.00;97609.59;68007;1275;1016444;-74
2023/12/13 06:08:05;;;;;;;;;;;;;;;4.87;100.00;97614.77;67991;1275;1019761;-75
2023/12/13 06:11:08;;;;;;;;;;;;;;;4.91;100.00;97623.05;68008;1275;1016486;-75
2023/12/13 06:14:10;;;;;;;;;;;;;;;4.94;100.00;97617.50;68000;1275;1016379;-74
2023/12/13 06:17:13;;;;;;;;;;;;;;;4.97;100.00;97605.52;67995;1275;1016489;-76
2023/12/13 06:20:16;;;;;;;;;;;;;;;5.05;100.00;97594.54;67976;1275;1016419;-75
2023/12/13 06:23:18;;;;;;;;;;;;;;;5.15;100.00;97592.02;67984;1275;1016391;-75
2023/12/13 06:26:21;;;;;;;;;;;;;;;5.05;100.00;97589.83;68035;1275;1015953;-75
2023/12/13 06:29:23;;;;;;;;;;;;;;;5.05;100.00;97597.11;68012;1275;1016426;-75
2023/12/13 06:32:26;;;;;;;;;;;;;;;5.10;100.00;97592.83;68027;1275;1016387;-74
2023/12/13 06:35:29;;;;;;;;;;;;;;;5.05;100.00;97595.01;68042;1275;1016453;-75
2023/12/13 06:38:31;;;;;;;;;;;;;;;5.08;100.00;97596.61;67978;1275;1018191;-75
2023/12/13 06:41:34;;;;;;;;;;;;;;;5.07;100.00;97592.70;67986;1275;1016083;-74
2023/12/13 06:44:37;;;;;;;;;;;;;;;5.10;100.00;97593.71;68032;1275;1016179;-74
2023/12/13 06:47:39;;;;;;;;;;;;;;;5.13;100.00;97591.65;68055;1275;1016333;-75
2023/12/13 06:50:42;;;;;;;;;;;;;;;5.12;100.00;97589.07;67988;1275;1016813;-74
2023/12/13 06:53:46;;;;;;;;;;;;;;;5.11;100.00;97579.65;67942;1275;1016155;-75
2023/12/13 06:56:49;;;;;;;;;;;;;;;5.11;100.00;97568.02;68007;1275;1016143;-74
2023/12/13 06:59:52;;;;;;;;;;;;;;;5.13;100.00;97568.27;67999;1275;1016313;-74
2023/12/13 07:02:54;;;;;;;;;;;;;;;5.18;100.00;97570.52;67989;1275;1016278;-73
2023/12/13 07:05:57;;;;;;;;;;;;;;;5.23;100.00;97571.63;67993;1275;1016486;-73
2023/12/13 07:09:02;;;;;;;;;;;;;;;5.30;100.00;97574.31;67974;1275;1016402;-74
2023/12/13 07:12:04;;;;;;;;;;;;;;;5.40;100.00;97577.59;67980;1275;1015906;-74
2023/12/13 07:15:07;;;;;;;;;;;;;;;5.32;100.00;97580.42;67989;1275;1016508;-74
2023/12/13 07:18:10;;;;;;;;;;;;;;;5.43;100.00;97569.22;68036;1275;1016371;-74
2023/12/13 07:21:12;;;;;;;;;;;;;;;5.55;100.00;97564.02;67999;1275;1016689;-75
2023/12/13 07:24:15;;;;;;;;;;;;;;;5.60;100.00;97565.42;67948;1275;1016772;-74
2023/12/13 07:27:17;;;;;;;;;;;;;;;5.64;100.00;97558.79;68038;1275;1016804;-75
2023/12/13 07:30:22;;;;;;;;;;;;;;;5.62;100.00;97555.77;68028;1275;1016580;-73
2023/12/13 07:33:24;;;;;;;;;;;;;;;5.66;100.00;97557.59;67992;1275;1016136;-74
2023/12/13 07:36:27;;;;;;;;;;;;;;;5.64;100.00;97550.98;67992;1275;1016432;-74
2023/12/13 07:39:30;;;;;;;;;;;;;;;5.60;100.00;97530.38;68030;1275;1016313;-74
2023/12/13 07:42:33;;;;;;;;;;;;;;;5.54;100.00;97531.09;68008;1275;1016344;-74
2023/12/13 07:45:36;;;;;;;;;;;;;;;5.50;100.00;97539.69;68022;1275;1016291;-74
2023/12/13 07:48:38;;;;;;;;;;;;;;;5.53;100.00;97540.15;67994;1275;1016320;-74
2023/12/13 07:51:41;;;;;;;;;;;;;;;5.66;100.00;97533.36;67999;1275;1016242;-75
2023/12/13 07:54:44;;;;;;;;;;;;;;;5.68;100.00;97531.98;68053;1275;1016182;-75
2023/12/13 07:57:46;;;;;;;;;;;;;;;5.71;100.00;97538.42;68049;1275;1016459;-75
2023/12/13 08:00:49;;;;;;;;;;;;;;;5.69;100.00;97546.86;68009;1275;1016307;-74
2023/12/13 08:03:51;;;;;;;;;;;;;;;5.77;100.00;97555.06;68020;1275;1016260;-74
2023/12/13 08:06:54;;;;;;;;;;;;;;;5.82;100.00;97560.65;68025;1275;1016337;-74
2023/12/13 08:09:59;;;;;;;;;;;;;;;5.88;100.00;97563.38;67996;1275;1016345;-75
2023/12/13 08:13:02;;;;;;;;;;;;;;;5.93;100.00;97561.16;68060;1275;1016793;-75
2023/12/13 08:16:05;;;;;;;;;;;;;;;5.93;100.00;97563.77;68013;1275;1016334;-74
2023/12/13 08:19:07;;;;;;;;;;;;;;;5.89;100.00;97569.19;68028;1275;1016449;-74
2023/12/13 08:22:10;;;;;;;;;;;;;;;5.99;100.00;97578.04;68035;1275;1016424;-74
2023/12/13 08:25:12;;;;;;;;;;;;;;;6.07;100.00;97575.09;68039;1275;1017653;-75
2023/12/13 08:28:15;;;;;;;;;;;;;;;6.09;100.00;97569.08;67985;1275;1017063;-74
2023/12/13 08:31:18;;;;;;;;;;;;;;;6.20;100.00;97573.59;68058;1275;1016605;-75
2023/12/13 08:34:20;;;;;;;;;;;;;;;6.17;100.00;97566.79;68058;1275;1016416;-75
2023/12/13 08:37:23;;;;;;;;;;;;;;;6.17;100.00;97560.94;67983;1275;1016128;-75
2023/12/13 08:40:25;;;;;;;;;;;;;;;6.03;100.00;97556.21;68023;1275;1016273;-75
2023/12/13 08:43:29;;;;;;;;;;;;;;;6.15;100.00;97554.27;68002;1275;1015661;-74
2023/12/13 08:46:32;;;;;;;;;;;;;;;6.19;100.00;97547.73;68040;1275;1016405;-74
2023/12/13 08:49:34;;;;;;;;;;;;;;;6.24;100.00;97540.49;68033;1275;1016305;-74
2023/12/13 08:52:37;;;;;;;;;;;;;;;6.17;100.00;97528.63;67996;1275;1016481;-74
2023/12/13 08:55:40;;;;;;;;;;;;;;;6.05;100.00;97511.34;68011;1275;1016484;-75
2023/12/13 08:58:44;;;;;;;;;;;;;;;6.09;100.00;97512.85;67998;1275;1016469;-74
2023/12/13 09:01:46;;;;;;;;;;;;;;;6.13;100.00;97528.40;68047;1275;1017037;-74
2023/12/13 09:04:49;;;;;;;;;;;;;;;6.23;100.00;97516.30;68029;1275;1018422;-74
2023/12/13 09:07:51;;;;;;;;;;;;;;;6.30;100.00;97506.28;67995;1275;1016373;-74
2023/12/13 09:10:55;;;;;;;;;;;;;;;6.42;100.00;97505.50;68029;1275;1016321;-74
2023/12/13 09:13:58;;;;;;;;;;;;;;;6.52;100.00;97498.45;68002;1275;1017130;-74
2023/12/13 09:17:01;;;;;;;;;;;;;;;6.60;100.00;97491.30;68025;1275;1016432;-74
2023/12/13 09:20:04;;;;;;;;;;;;;;;6.78;100.00;97493.64;68014;1275;1018042;-75
2023/12/13 09:23:07;;;;;;;;;;;;;;;6.96;100.00;97486.36;68015;1275;1016440;-74
2023/12/13 09:26:13;;;;;;;;;;;;;;;6.90;100.00;97483.61;68004;1275;1016413;-74
2023/12/13 09:29:16;;;;;;;;;;;;;;;6.88;100.00;97491.05;68012;1275;1017121;-76
2023/12/13 09:32:19;;;;;;;;;;;;;;;6.99;100.00;97496.05;68001;1275;1016460;-74
2023/12/13 09:35:21;;;;;;;;;;;;;;;6.96;100.00;97501.60;68010;1275;1016296;-74
2023/12/13 09:38:24;;;;;;;;;;;;;;;6.99;100.00;97514.63;67991;1275;1016132;-75
2023/12/13 09:41:27;;;;;;;;;;;;;;;6.90;100.00;97518.34;68016;1275;1016198;-75
2023/12/13 09:44:30;;;;;;;;;;;;;;;6.94;100.00;97518.05;68010;1275;1016397;-75
2023/12/13 09:47:33;;;;;;;;;;;;;;;7.03;100.00;97514.01;68047;1275;1016195;-74
2023/12/13 09:50:35;;;;;;;;;;;;;;;6.99;100.00;97508.91;68002;1275;1019178;-74
2023/12/13 09:53:38;;;;;;;;;;;;;;;6.95;100.00;97502.89;68007;1275;1017971;-74
2023/12/13 09:56:41;;;;;;;;;;;;;;;6.88;100.00;97498.48;68024;1275;1016386;-74
2023/12/13 09:59:45;;;;;;;;;;;;;;;6.89;100.00;97499.31;68013;1275;1016401;-73
2023/12/13 10:02:48;;;;;;;;;;;;;;;6.96;100.00;97505.44;67998;1275;1016429;-74
2023/12/13 10:05:51;;;;;;;;;;;;;;;7.09;100.00;97502.15;68041;1275;1016225;-74
2023/12/13 10:08:53;;;;;;;;;;;;;;;7.14;100.00;97507.15;68005;1275;1016196;-75
2023/12/13 10:11:56;;;;;;;;;;;;;;;7.28;100.00;97508.70;67977;1275;1016509;-73
2023/12/13 10:14:58;;;;;;;;;;;;;;;7.26;100.00;97510.19;67996;1275;1016048;-74
2023/12/13 10:18:01;;;;;;;;;;;;;;;7.33;100.00;97513.19;68050;1275;1016325;-74
2023/12/13 10:21:04;;;;;;;;;;;;;;;7.38;100.00;97519.12;68009;1275;1016470;-75
2023/12/13 10:24:07;;;;;;;;;;;;;;;7.53;100.00;97517.52;68014;1275;1015856;-74
2023/12/13 10:27:09;;;;;;;;;;;;;;;7.61;100.00;97505.84;68054;1275;1016413;-74
2023/12/13 10:30:12;;;;;;;;;;;;;;;7.64;100.00;97501.52;67999;1275;1016770;-75
2023/12/13 10:33:15;;;;;;;;;;;;;;;7.66;100.00;97497.71;68049;1275;1018738;-75
2023/12/13 10:36:18;;;;;;;;;;;;;;;7.74;100.00;97493.27;68037;1275;1016475;-74
2023/12/13 10:39:20;;;;;;;;;;;;;;;7.80;100.00;97480.52;67972;1275;1016949;-74
2023/12/13 10:42:23;;;;;;;;;;;;;;;7.79;100.00;97456.42;68037;1275;1016187;-75
2023/12/13 10:45:25;;;;;;;;;;;;;;;7.75;100.00;97440.54;68054;1275;1016406;-75
2023/12/13 10:48:28;;;;;;;;;;;;;;;7.66;100.00;97437.33;68009;1275;1016485;-74
2023/12/13 10:51:32;;;;;;;;;;;;;;;7.75;100.00;97436.03;67998;1275;1016734;-74
2023/12/13 10:54:36;;;;;;;;;;;;;;;7.92;100.00;97438.74;68033;1275;1018719;-74
2023/12/13 10:57:39;;;;;;;;;;;;;;;7.99;100.00;97435.66;68074;1275;1017098;-74
2023/12/13 11:00:42;;;;;;;;;;;;;;;7.94;100.00;97428.02;68037;1275;1016917;-74
2023/12/13 11:03:44;;;;;;;;;;;;;;;7.92;100.00;97419.11;67978;1275;1016548;-75
2023/12/13 11:06:47;;;;;;;;;;;;;;;7.90;100.00;97409.37;68050;1275;1016421;-75
2023/12/13 11:09:49;;;;;;;;;;;;;;;7.98;100.00;97399.37;68079;1275;1016393;-75
2023/12/13 11:12:52;;;;;;;;;;;;;;;8.08;100.00;97395.81;68015;1275;1016370;-74
2023/12/13 11:15:55;;;;;;;;;;;;;;;8.20;100.00;97388.93;68036;1275;1016404;-74
2023/12/13 11:18:57;;;;;;;;;;;;;;;8.42;100.00;97386.50;68035;1275;1017000;-74
2023/12/13 11:22:00;;;;;;;;;;;;;;;8.48;100.00;97379.14;68028;1275;1015930;-74
2023/12/13 11:25:03;;;;;;;;;;;;;;;8.50;100.00;97381.98;67997;1275;1016456;-73
2023/12/13 11:28:05;;;;;;;;;;;;;;;8.68;100.00;97373.64;68031;1275;1016467;-74
2023/12/13 11:31:08;;;;;;;;;;;;;;;8.86;100.00;97365.84;68009;1275;1016242;-74
2023/12/13 11:34:11;;;;;;;;;;;;;;;9.00;100.00;97367.22;68019;1275;1018169;-75
2023/12/13 11:37:14;;;;;;;;;;;;;;;9.03;100.00;97368.89;68009;1275;1018171;-74
2023/12/13 11:40:17;;;;;;;;;;;;;;;9.02;100.00;97363.55;67996;1275;1016417;-74
2023/12/13 11:43:19;;;;;;;;;;;;;;;9.03;100.00;97362.25;68006;1275;1016196;-74
2023/12/13 11:46:22;;;;;;;;;;;;;;;9.01;100.00;97357.88;68038;1275;1017928;-73
2023/12/13 11:49:26;;;;;;;;;;;;;;;9.07;100.00;97351.83;67969;1275;1016496;-74
2023/12/13 11:52:31;;;;;;;;;;;;;;;9.12;100.00;97349.48;67998;1275;1016516;-74
2023/12/13 11:55:34;;;;;;;;;;;;;;;9.18;100.00;97351.36;68016;1275;1016379;-74
2023/12/13 11:58:36;;;;;;;;;;;;;;;9.31;100.00;97353.06;67978;1275;1016542;-74
2023/12/13 12:01:39;;;;;;;;;;;;;;;9.32;100.00;97357.39;67994;1275;1016330;-74
2023/12/13 12:04:41;;;;;;;;;;;;;;;9.36;100.00;97362.27;67987;1275;1016793;-74
2023/12/13 12:07:44;;;;;;;;;;;;;;;9.45;100.00;97372.73;68044;1275;1016093;-73
2023/12/13 12:10:47;;;;;;;;;;;;;;;9.39;100.00;97380.37;68006;1275;1016416;-73
2023/12/13 12:13:51;;;;;;;;;;;;;;;9.32;100.00;97378.80;68043;1275;1016507;-74
2023/12/13 12:16:55;;;;;;;;;;;;;;;9.36;100.00;97373.14;67997;1275;1016347;-74
2023/12/13 12:19:59;;;;;;;;;;;;;;;9.17;100.00;97378.79;68034;1275;1015909;-74
2023/12/13 12:23:02;;;;;;;;;;;;;;;9.14;100.00;97378.16;68049;1275;1016383;-74
2023/12/13 12:26:05;;;;;;;;;;;;;;;9.21;100.00;97376.38;68002;1275;1016172;-75
2023/12/13 12:29:07;;;;;;;;;;;;;;;9.12;100.00;97365.55;67995;1275;1016317;-74
2023/12/13 12:32:11;;;;;;;;;;;;;;;9.06;100.00;97365.03;68024;1275;1016262;-74
2023/12/13 12:35:14;;;;;;;;;;;;;;;9.04;100.00;97366.38;68024;1275;1016416;-74
2023/12/13 12:38:17;;;;;;;;;;;;;;;8.93;100.00;97366.16;68024;1275;1016392;-73
2023/12/13 12:41:22;;;;;;;;;;;;;;;8.82;100.00;97368.58;68040;1275;1016488;-74
2023/12/13 12:44:25;;;;;;;;;;;;;;;8.93;100.00;97368.63;68013;1275;1016185;-74
2023/12/13 12:47:30;;;;;;;;;;;;;;;8.92;100.00;97363.45;68030;1275;1016231;-73
2023/12/13 12:50:34;;;;;;;;;;;;;;;8.95;100.00;97365.96;68046;1275;1016897;-75
2023/12/13 12:53:36;;;;;;;;;;;;;;;8.98;100.00;97371.65;68065;1275;1016486;-74
2023/12/13 12:56:39;;;;;;;;;;;;;;;8.98;100.00;97372.21;68058;1275;1018706;-74
2023/12/13 12:59:41;;;;;;;;;;;;;;;8.90;100.00;97367.95;67996;1275;1016478;-74
2023/12/13 13:02:44;;;;;;;;;;;;;;;8.92;100.00;97363.47;68010;1275;1016448;-74
2023/12/13 13:05:48;;;;;;;;;;;;;;;8.85;100.00;97360.48;68008;1275;1016074;-74
2023/12/13 13:08:51;;;;;;;;;;;;;;;8.81;100.00;97359.79;68013;1275;1019005;-74
2023/12/13 13:11:53;;;;;;;;;;;;;;;8.74;100.00;97365.19;67977;1275;1016436;-74
2023/12/13 13:14:56;;;;;;;;;;;;;;;8.75;100.00;97365.60;67948;1275;1016365;-74
2023/12/13 13:17:59;;;;;;;;;;;;;;;8.77;100.00;97374.04;68045;1275;1019573;-74
2023/12/13 13:21:02;;;;;;;;;;;;;;;8.72;100.00;97383.29;68008;1275;1018683;-75
2023/12/13 13:24:05;;;;;;;;;;;;;;;8.48;100.00;97387.34;68059;1275;1016133;-74
2023/12/13 13:27:07;;;;;;;;;;;;;;;8.45;100.00;97388.60;68012;1275;1016230;-75
2023/12/13 13:30:10;;;;;;;;;;;;;;;8.58;100.00;97391.09;68011;1275;1016193;-75
2023/12/13 13:33:13;;;;;;;;;;;;;;;8.59;100.00;97388.63;68046;1275;1016326;-75
2023/12/13 13:36:16;;;;;;;;;;;;;;;8.58;100.00;97398.14;68003;1275;1015718;-75
2023/12/13 13:39:19;;;;;;;;;;;;;;;8.42;100.00;97408.84;68062;1275;1016765;-74
2023/12/13 13:42:22;;;;;;;;;;;;;;;8.31;100.00;97415.93;68003;1275;1016374;-75
2023/12/13 13:45:24;;;;;;;;;;;;;;;8.23;100.00;97413.71;68022;1275;1016303;-75
2023/12/13 13:48:27;;;;;;;;;;;;;;;8.19;100.00;97413.88;68051;1275;1016380;-74
2023/12/13 13:51:30;;;;;;;;;;;;;;;8.06;100.00;97410.61;68026;1275;1015873;-74
2023/12/13 13:54:33;;;;;;;;;;;;;;;8.08;100.00;97410.84;68059;1275;1016479;-75
2023/12/13 13:57:36;;;;;;;;;;;;;;;7.99;100.00;97404.85;67992;1275;1016448;-75
2023/12/13 14:00:39;;;;;;;;;;;;;;;7.96;100.00;97410.48;67865;1275;1016412;-75
2023/12/13 14:03:41;;;;;;;;;;;;;;;7.97;100.00;97408.66;68010;1275;1016328;-74
2023/12/13 14:06:44;;;;;;;;;;;;;;;8.01;100.00;97409.77;67998;1275;1016141;-73
2023/12/13 14:09:47;;;;;;;;;;;;;;;7.97;100.00;97402.77;68001;1275;1016300;-75
2023/12/13 14:12:49;;;;;;;;;;;;;;;7.88;100.00;97395.21;68049;1275;1016445;-74
2023/12/13 14:15:52;;;;;;;;;;;;;;;7.79;100.00;97393.79;68003;1274;1016276;-74
2023/12/13 14:18:54;;;;;;;;;;;;;;;7.68;100.00;97392.31;68015;1275;1016309;-74
2023/12/13 14:21:57;;;;;;;;;;;;;;;7.73;100.00;97396.48;68021;1275;1016430;-75
2023/12/13 14:25:00;;;;;;;;;;;;;;;7.68;100.00;97406.04;67968;1275;1015871;-75
2023/12/13 14:28:03;;;;;;;;;;;;;;;7.69;100.00;97415.85;67991;1275;1016310;-75
2023/12/13 14:31:06;;;;;;;;;;;;;;;7.65;100.00;97409.73;68028;1275;1016168;-75
2023/12/13 14:34:09;;;;;;;;;;;;;;;7.76;100.00;97397.15;68023;1275;1016279;-74
2023/12/13 14:37:11;;;;;;;;;;;;;;;7.84;100.00;97393.41;68039;1275;1016403;-75
2023/12/13 14:40:14;;;;;;;;;;;;;;;7.66;100.00;97392.23;68050;1275;1017030;-75
2023/12/13 14:43:18;;;;;;;;;;;;;;;7.58;100.00;97392.99;68022;1275;1016179;-75
2023/12/13 14:46:21;;;;;;;;;;;;;;;7.48;100.00;97389.40;68030;1275;1016148;-74
2023/12/13 14:49:23;;;;;;;;;;;;;;;7.39;100.00;97386.69;68023;1275;1016058;-74
2023/12/13 14:52:26;;;;;;;;;;;;;;;7.35;100.00;97384.19;68051;1275;1016406;-75
2023/12/13 14:55:30;;;;;;;;;;;;;;;7.16;100.00;97383.05;67995;1275;1016310;-73
2023/12/13 14:58:35;;;;;;;;;;;;;;;7.06;100.00;97381.55;68018;1275;1016428;-75
2023/12/13 15:01:45;;;;;;;;;;;;;;;6.96;100.00;97379.79;68008;1275;1016566;-75
2023/12/13 15:05:04;;;;;;;;;;;;;;;6.90;100.00;97372.91;68035;1275;1016458;-75
2023/12/13 15:08:08;;;;;;;;;;;;;;;7.35;100.00;97366.60;67936;1275;1016445;-75
2023/12/13 15:11:12;;;;;;;;;;;;;;;7.31;100.00;97368.64;68027;1275;1016174;-75
2023/12/13 15:14:17;;;;;;;;;;;;;;;7.22;100.00;97373.98;68029;1275;1016193;-75
2023/12/13 15:17:21;;;;;;;;;;;;;;;7.35;100.00;97375.19;67987;1275;1016983;-75
2023/12/13 15:20:24;;;;;;;;;;;;;;;7.38;100.00;97376.88;68027;1275;1016005;-74
2023/12/13 15:23:26;;;;;;;;;;;;;;;7.52;100.00;97384.73;68057;1275;1016377;-75
2023/12/13 15:26:29;;;;;;;;;;;;;;;7.71;100.00;97397.00;67980;1275;1017151;-74
2023/12/13 15:29:32;;;;;;;;;;;;;;;7.74;100.00;97400.02;68036;1275;1018326;-74